Pickleville, Utah
Current Conditions -  °F | °C
As of 8:51 PM on Thursday 18 Dec 2014 (Local Time) from KLGU Reporting Station
Haze Haze  
Wind Chill: 31°   Ceiling: Unl
Heat Index: 31°   Visibility: 6mi
Dew Point: 27°   Wind: 0mph
Humidity: 85%   Direction: NA
Pressure: 30.17"   Gusts: NA
Location:  41.9408°N, 111.433°W
Report Text: KLGU 190351Z AUTO 00000KT 6SM BR CLR M01/M03 A3017 RMK AO2 SLP235 T10061028
Loading
Personal Weather Stations






























Interactive Weather Map New forecast layout! Learn more

10-Day Weather Forecast

Advertisements
Track Severe Weather on mobile